Wilson Bremen — 9HJV9 — position and weather

sailwx.info

Track history (hours):
 
Tides and Currents Weather Stations Pressure Air Temp Water Temp Dewpoint Dewpoint Depression Visibility Wind Speed Wind Dir Waves Ship Positions

Wilson Bremen

Last reported at 2017-Sep-24 19:22 UTC. Time now 2017-Sep-24 19:33 UTC.
Position N 66°49' E 013°56'.

Length 88 m; draft 3 m.

Type: Cargo ship. MMSI: 249076000.

Date/timePositionNaut miles runAvg speedWind from/ knotsBaromVisibWave heightAir tempDewpointWater temp
2017-Sep-24 19:22N 66°49' E 013°56'0 0.0
2017-Sep-24 18:58N 66°49' E 013°56'0 0.0
2017-Sep-24 18:10N 66°49' E 013°56'0 0.0
2017-Sep-24 17:52N 66°49' E 013°56'0 0.0
2017-Sep-24 17:28N 66°49' E 013°56'0 0.0
2017-Sep-24 16:58N 66°49' E 013°56'0 0.0
2017-Sep-24 05:16N 66°49' E 013°56'0 0.0
2017-Sep-24 04:58N 66°49' E 013°56'0 0.0
2017-Sep-24 04:16N 66°49' E 013°56'0 0.0
2017-Sep-23 22:34N 66°49' E 013°56'0 0.0
2017-Sep-23 22:16N 66°49' E 013°56'0 0.0
2017-Sep-23 21:40N 66°49' E 013°56'0 0.0
2017-Sep-23 21:28N 66°49' E 013°56'0 0.0
2017-Sep-23 20:58N 66°49' E 013°56'0 0.0
2017-Sep-23 20:28N 66°49' E 013°56'0 0.0
2017-Sep-23 19:58N 66°49' E 013°56'31 0.7
2017-Sep-22 01:58N 66°18' E 014°07'0 0.0
2017-Sep-22 01:25N 66°18' E 014°07'0 0.0
2017-Sep-22 00:58N 66°18' E 014°07'0 0.0
2017-Sep-22 00:28N 66°18' E 014°07'0 0.0
2017-Sep-21 23:58N 66°18' E 014°07'0 0.0
2017-Sep-21 23:28N 66°18' E 014°07'0 0.0
2017-Sep-21 22:58N 66°18' E 014°07'0 0.0
2017-Sep-21 22:28N 66°18' E 014°07'0 0.0
2017-Sep-21 21:58N 66°18' E 014°07'0 0.0
2017-Sep-21 21:28N 66°18' E 014°07'0 0.0
2017-Sep-21 20:58N 66°18' E 014°07'0 0.0
2017-Sep-21 20:28N 66°18' E 014°07'0 0.0
2017-Sep-21 19:58N 66°18' E 014°07'0 0.0
2017-Sep-21 19:28N 66°18' E 014°07'0 0.0
2017-Sep-21 18:58N 66°18' E 014°07'0 0.0
2017-Sep-21 18:28N 66°18' E 014°07'0 0.0
2017-Sep-21 17:58N 66°18' E 014°07'0 0.0
2017-Sep-21 17:28N 66°18' E 014°07'0 0.0
2017-Sep-21 16:58N 66°18' E 014°07'0 0.0
2017-Sep-21 16:28N 66°18' E 014°07'0 0.0
2017-Sep-21 15:58N 66°18' E 014°07'0 0.0
2017-Sep-21 15:28N 66°18' E 014°07'0 0.0
2017-Sep-21 14:58N 66°18' E 014°07'0 0.0
2017-Sep-21 14:28N 66°18' E 014°07'0 0.0
2017-Sep-21 13:58N 66°18' E 014°07'1 1.5
2017-Sep-21 13:27N 66°19' E 014°07'0 0.1
2017-Sep-21 12:57N 66°19' E 014°07'0 0.0
2017-Sep-21 12:27N 66°19' E 014°07'0 0.0
2017-Sep-21 11:57N 66°19' E 014°07'0 0.0
2017-Sep-21 11:27N 66°19' E 014°07'0 0.0
2017-Sep-21 10:51N 66°19' E 014°07'0 0.0
2017-Sep-21 10:27N 66°19' E 014°07'0 0.0
2017-Sep-21 09:57N 66°19' E 014°07'0 0.0
2017-Sep-21 09:27N 66°19' E 014°07'0 0.0
2017-Sep-21 08:57N 66°19' E 014°07'0 0.0
2017-Sep-21 08:27N 66°19' E 014°07'0 0.0
2017-Sep-21 07:57N 66°19' E 014°07'0 0.1
2017-Sep-21 07:27N 66°19' E 014°07'0 0.0
2017-Sep-21 06:57N 66°19' E 014°07'0 0.0
2017-Sep-21 06:27N 66°19' E 014°07'0 0.0
2017-Sep-21 05:57N 66°19' E 014°07'0 0.0
2017-Sep-21 05:27N 66°19' E 014°07'0 0.0
2017-Sep-21 04:57N 66°19' E 014°07'0 0.0
2017-Sep-21 04:27N 66°19' E 014°07'0 0.0
2017-Sep-21 03:57N 66°19' E 014°07'0 0.0
2017-Sep-21 03:27N 66°19' E 014°07'0 0.0
2017-Sep-21 02:57N 66°19' E 014°07'0 0.0
2017-Sep-21 02:27N 66°19' E 014°07'0 0.0
2017-Sep-21 01:57N 66°19' E 014°07'0 0.0
2017-Sep-21 01:27N 66°19' E 014°07'0 0.0
2017-Sep-21 00:57N 66°19' E 014°07'0 0.8
2017-Sep-21 00:30N 66°19' E 014°06'4 8.6
2017-Sep-21 00:00N 66°17' E 013°57'4 8.9
2017-Sep-20 23:29N 66°15' E 013°47'4 8.5
2017-Sep-20 23:00N 66°14' E 013°37'4 8.4
2017-Sep-20 22:30N 66°14' E 013°26'4 7.3
2017-Sep-20 22:00N 66°14' E 013°17'4 8.0
2017-Sep-20 21:30N 66°11' E 013°09'4 8.6
2017-Sep-20 21:00N 66°10' E 012°60'4 8.2
2017-Sep-20 20:30N 66°10' E 012°50'4 8.4
2017-Sep-20 20:00N 66°12' E 012°41'4 7.3
2017-Sep-20 19:30N 66°14' E 012°33'4 8.6
2017-Sep-20 19:00N 66°16' E 012°23'4 8.5
2017-Sep-20 18:30N 66°17' E 012°13'5 9.3
2017-Sep-20 18:00N 66°16' E 012°01'5 9.3
2017-Sep-20 17:30N 66°15' E 011°50'163 9.6
2017-Sep-20 00:35N 63°59' E 008°18'1 9.0
2017-Sep-20 00:30N 63°58' E 008°17'5 9.1
2017-Sep-20 00:00N 63°55' E 008°10'5 9.3
2017-Sep-19 23:29N 63°52' E 008°02'4 9.2
2017-Sep-19 23:00N 63°48' E 007°56'5 9.0
2017-Sep-19 22:30N 63°45' E 007°48'5 9.1
2017-Sep-19 22:00N 63°42' E 007°41'5 9.4
2017-Sep-19 21:30N 63°39' E 007°33'5 9.4
2017-Sep-19 21:00N 63°35' E 007°26'5 9.6
2017-Sep-19 20:30N 63°32' E 007°19'5 9.6
2017-Sep-19 20:00N 63°28' E 007°12'5 9.5
2017-Sep-19 19:30N 63°25' E 007°04'5 9.8
2017-Sep-19 19:00N 63°21' E 006°57'5 9.7
2017-Sep-19 18:30N 63°17' E 006°50'5 9.5
2017-Sep-19 18:00N 63°14' E 006°44'5 9.6
2017-Sep-19 17:30N 63°10' E 006°37'5 9.7
2017-Sep-19 17:00N 63°06' E 006°30'5 9.9
2017-Sep-19 16:30N 63°02' E 006°23'510.2
2017-Sep-19 16:00N 62°58' E 006°17'510.3
2017-Sep-19 15:30N 62°54' E 006°10'510.4
2017-Sep-19 15:00N 62°50' E 006°02'510.6
2017-Sep-19 14:30N 62°46' E 005°55'510.8
2017-Sep-19 14:00N 62°42' E 005°48'510.3
2017-Sep-19 13:30N 62°38' E 005°41'5 9.7
2017-Sep-19 13:00N 62°34' E 005°35'5 9.5
2017-Sep-19 12:30N 62°30' E 005°28'5 9.4
2017-Sep-19 12:00N 62°27' E 005°21'5 9.2
2017-Sep-19 11:29N 62°23' E 005°15'5 9.5
2017-Sep-19 11:00N 62°19' E 005°09'5 9.9
2017-Sep-19 10:30N 62°15' E 005°03'5 9.8
2017-Sep-19 10:00N 62°11' E 004°57'5 9.5
2017-Sep-19 09:30N 62°07' E 004°52'5 9.4
2017-Sep-19 09:00N 62°03' E 004°46'5 9.4
2017-Sep-19 08:30N 61°59' E 004°42'5 9.5
2017-Sep-19 08:00N 61°54' E 004°39'5 9.9
2017-Sep-19 07:30N 61°50' E 004°35'5 9.7
2017-Sep-19 07:00N 61°45' E 004°31'5 9.6
2017-Sep-19 06:30N 61°41' E 004°27'5 9.7
2017-Sep-19 06:00N 61°36' E 004°26'5 9.9
2017-Sep-19 05:30N 61°31' E 004°26'510.0
2017-Sep-19 05:00N 61°26' E 004°26'510.1
2017-Sep-19 04:30N 61°21' E 004°26'5 9.8
2017-Sep-19 03:59N 61°16' E 004°25'5 9.7
2017-Sep-19 03:30N 61°11' E 004°24'5 9.5
2017-Sep-19 03:00N 61°06' E 004°24'510.2
2017-Sep-19 02:29N 61°01' E 004°24'510.7
2017-Sep-19 02:00N 60°56' E 004°26'510.5
2017-Sep-19 01:30N 60°51' E 004°28'510.1
2017-Sep-19 01:00N 60°46' E 004°29'5 9.6
2017-Sep-19 00:30N 60°41' E 004°31'5 9.2
2017-Sep-19 00:00N 60°37' E 004°32'5 9.1
2017-Sep-18 23:30N 60°32' E 004°34'5 9.5
2017-Sep-18 23:00N 60°28' E 004°35'5 9.7
2017-Sep-18 22:30N 60°23' E 004°37'5 9.8
2017-Sep-18 21:59N 60°18' E 004°39'5 9.7
2017-Sep-18 21:30N 60°13' E 004°40'5 9.8
2017-Sep-18 21:00N 60°08' E 004°42'5 9.7
2017-Sep-18 20:29N 60°03' E 004°43'5 9.6
2017-Sep-18 20:00N 59°59' E 004°45'5 9.5
2017-Sep-18 19:30N 59°54' E 004°46'5 9.5
2017-Sep-18 18:59N 59°49' E 004°48'5 9.6
2017-Sep-18 18:30N 59°45' E 004°49'5 9.3
2017-Sep-18 18:00N 59°40' E 004°51'5 9.2
2017-Sep-18 17:29N 59°35' E 004°53'5 9.4
2017-Sep-18 17:00N 59°31' E 004°54'5 9.7
2017-Sep-18 16:30N 59°26' E 004°56'510.2
2017-Sep-18 16:00N 59°21' E 004°57'510.2
2017-Sep-18 15:30N 59°16' E 004°59'510.0
2017-Sep-18 15:00N 59°12' E 005°04'510.0
2017-Sep-18 14:30N 59°08' E 005°10'5 9.6
2017-Sep-18 14:00N 59°07' E 005°19'5 9.6
2017-Sep-18 13:30N 59°09' E 005°28'5 9.5
2017-Sep-18 13:00N 59°12' E 005°35'5 9.6
2017-Sep-18 12:30N 59°15' E 005°42'5 9.6
2017-Sep-18 12:00N 59°18' E 005°49'5 8.9
2017-Sep-18 11:29N 59°22' E 005°54'4 9.3
2017-Sep-18 11:00N 59°26' E 005°51'3 6.1
2017-Sep-18 10:30N 59°26' E 005°45'0 0.2
2017-Sep-18 09:59N 59°26' E 005°45'0 0.0
2017-Sep-18 09:29N 59°26' E 005°45'0 0.0
2017-Sep-18 08:59N 59°26' E 005°45'0 0.0
2017-Sep-18 08:29N 59°26' E 005°45'0 0.0
2017-Sep-18 07:59N 59°26' E 005°45'0 0.0
2017-Sep-18 07:29N 59°26' E 005°45'0 0.0
2017-Sep-18 06:59N 59°26' E 005°45'0 0.0
2017-Sep-18 06:29N 59°26' E 005°45'0 0.0
2017-Sep-18 05:59N 59°26' E 005°45'0 0.0
2017-Sep-18 05:29N 59°26' E 005°45'0 0.0
2017-Sep-18 04:59N 59°26' E 005°45'0 0.0
2017-Sep-18 04:29N 59°26' E 005°45'0 0.0
2017-Sep-18 03:59N 59°26' E 005°45'0 0.0
2017-Sep-18 03:29N 59°26' E 005°45'0 0.0
2017-Sep-18 02:59N 59°26' E 005°45'0 0.0
2017-Sep-18 02:29N 59°26' E 005°45'0 0.0
2017-Sep-18 01:59N 59°26' E 005°45'0 0.0
2017-Sep-18 01:29N 59°26' E 005°45'0 0.0
2017-Sep-18 00:59N 59°26' E 005°45'0 0.0
2017-Sep-18 00:29N 59°26' E 005°45'0 0.0
2017-Sep-17 23:59N 59°26' E 005°45'0 0.0
2017-Sep-17 23:29N 59°26' E 005°45'0 0.0
2017-Sep-17 22:59N 59°26' E 005°45'0 0.0
2017-Sep-17 22:29N 59°26' E 005°45'0 0.0
2017-Sep-17 21:59N 59°26' E 005°45'0 0.0
2017-Sep-17 21:29N 59°26' E 005°45'0 0.0
2017-Sep-17 20:59N 59°26' E 005°45'0 0.0
2017-Sep-17 20:29N 59°26' E 005°45'0 0.0
2017-Sep-17 19:59N 59°26' E 005°45'0 0.0
2017-Sep-17 19:29N 59°26' E 005°45'0 0.0
2017-Sep-17 18:59N 59°26' E 005°45'0 0.0
2017-Sep-17 18:29N 59°26' E 005°45'0 0.0
2017-Sep-17 17:59N 59°26' E 005°45'0 0.0
2017-Sep-17 17:29N 59°26' E 005°45'0 0.0
2017-Sep-17 16:59N 59°26' E 005°45'0 0.0
2017-Sep-17 16:29N 59°26' E 005°45'0 0.0
2017-Sep-17 15:59N 59°26' E 005°45'0 0.0
2017-Sep-17 15:29N 59°26' E 005°45'0 0.0
2017-Sep-17 14:59N 59°26' E 005°45'0 0.0
2017-Sep-17 14:29N 59°26' E 005°45'0 0.0
2017-Sep-17 13:59N 59°26' E 005°45'0 0.0
2017-Sep-17 13:29N 59°26' E 005°45'0 0.0
2017-Sep-17 12:59N 59°26' E 005°45'0 0.0
2017-Sep-17 12:29N 59°26' E 005°45'0 0.0
2017-Sep-17 11:59N 59°26' E 005°45'0 0.0
2017-Sep-17 11:29N 59°26' E 005°45'0 0.0
2017-Sep-17 10:59N 59°26' E 005°45'0 0.0
2017-Sep-17 10:29N 59°26' E 005°45'0 0.0
2017-Sep-17 09:59N 59°26' E 005°45'0 0.0
2017-Sep-17 09:29N 59°26' E 005°45'0 0.0
2017-Sep-17 08:59N 59°26' E 005°45'0 0.0
2017-Sep-17 08:29N 59°26' E 005°45'0 0.0
2017-Sep-17 07:59N 59°26' E 005°45'0 0.0
2017-Sep-17 07:29N 59°26' E 005°45'0 0.0
2017-Sep-17 06:59N 59°26' E 005°45'0 0.0
2017-Sep-17 06:29N 59°26' E 005°45'0 0.0
2017-Sep-17 05:59N 59°26' E 005°45'0 0.0
2017-Sep-17 05:29N 59°26' E 005°45'0 0.0
2017-Sep-17 04:59N 59°26' E 005°45'0 0.0
2017-Sep-17 04:29N 59°26' E 005°45'0 0.0
2017-Sep-17 03:59N 59°26' E 005°45'0 0.0
2017-Sep-17 03:29N 59°26' E 005°45'0 0.0
2017-Sep-17 02:59N 59°26' E 005°45'0 0.0
2017-Sep-17 02:29N 59°26' E 005°45'0 0.0
2017-Sep-17 01:59N 59°26' E 005°45'0 0.0
2017-Sep-17 01:29N 59°26' E 005°45'0 0.0
2017-Sep-17 00:59N 59°26' E 005°45'0 0.0
2017-Sep-17 00:29N 59°26' E 005°45'0 0.0
2017-Sep-16 23:59N 59°26' E 005°45'0 0.0
2017-Sep-16 23:29N 59°26' E 005°45'0 0.0
2017-Sep-16 22:59N 59°26' E 005°45'0 0.0
2017-Sep-16 22:29N 59°26' E 005°45'0 0.0
2017-Sep-16 21:59N 59°26' E 005°45'0 0.0
2017-Sep-16 21:29N 59°26' E 005°45'0 0.0
2017-Sep-16 20:59N 59°26' E 005°45'0 0.0
2017-Sep-16 20:29N 59°26' E 005°45'0 0.0
2017-Sep-16 19:59N 59°26' E 005°45'0 0.0
2017-Sep-16 19:29N 59°26' E 005°45'0 0.0
2017-Sep-16 18:59N 59°26' E 005°45'0 0.0
2017-Sep-16 18:29N 59°26' E 005°45'0 0.0
2017-Sep-16 17:59N 59°26' E 005°45'0 0.0
2017-Sep-16 17:29N 59°26' E 005°45'0 0.0
2017-Sep-16 16:59N 59°26' E 005°45'0 0.0
2017-Sep-16 16:29N 59°26' E 005°45'0 0.0
2017-Sep-16 15:59N 59°26' E 005°45'0 0.0
2017-Sep-16 15:29N 59°26' E 005°45'0 0.0
2017-Sep-16 14:59N 59°26' E 005°45'0 0.0
2017-Sep-16 14:29N 59°26' E 005°45'0 0.0
2017-Sep-16 13:59N 59°26' E 005°45'0 0.0
2017-Sep-16 13:29N 59°26' E 005°45'0 0.0
2017-Sep-16 12:59N 59°26' E 005°45'0 0.0
2017-Sep-16 12:29N 59°26' E 005°45'0 0.0
2017-Sep-16 11:59N 59°26' E 005°45'0 0.0
2017-Sep-16 11:29N 59°26' E 005°45'0 0.0
2017-Sep-16 10:59N 59°26' E 005°45'0 0.0
2017-Sep-16 10:29N 59°26' E 005°45'0 0.0
2017-Sep-16 09:59N 59°26' E 005°45'0 0.0
2017-Sep-16 09:29N 59°26' E 005°45'0 0.0
2017-Sep-16 08:59N 59°26' E 005°45'0 0.0
2017-Sep-16 08:29N 59°26' E 005°45'0 0.0
2017-Sep-16 07:59N 59°26' E 005°45'0 0.0
2017-Sep-16 07:29N 59°26' E 005°45'0 0.0
2017-Sep-16 06:59N 59°26' E 005°45'0 0.0
2017-Sep-16 06:29N 59°26' E 005°45'0 0.0
2017-Sep-16 05:59N 59°26' E 005°45'0 0.0
2017-Sep-16 05:29N 59°26' E 005°45'0 0.0
2017-Sep-16 04:59N 59°26' E 005°45'0 0.0
2017-Sep-16 04:29N 59°26' E 005°45'0 0.0
2017-Sep-16 03:53N 59°26' E 005°45'0 0.0
2017-Sep-16 03:29N 59°26' E 005°45'0 0.0
2017-Sep-16 02:59N 59°26' E 005°45'0 0.0
2017-Sep-16 02:29N 59°26' E 005°45'0 0.0
2017-Sep-16 01:59N 59°26' E 005°45'0 0.0
2017-Sep-16 01:29N 59°26' E 005°45'0 0.0
2017-Sep-16 00:59N 59°26' E 005°45'0 0.0
2017-Sep-16 00:29N 59°26' E 005°45'0 0.0
2017-Sep-15 23:59N 59°26' E 005°45'0 0.0
2017-Sep-15 23:29N 59°26' E 005°45'0 0.0
2017-Sep-15 22:59N 59°26' E 005°45'0 0.0
2017-Sep-15 22:29N 59°26' E 005°45'0 0.0
2017-Sep-15 21:59N 59°26' E 005°45'0 0.0
2017-Sep-15 21:29N 59°26' E 005°45'0 0.0
2017-Sep-15 20:59N 59°26' E 005°45'0 0.0
2017-Sep-15 20:29N 59°26' E 005°45'0 0.0
2017-Sep-15 19:59N 59°26' E 005°45'0 0.0
2017-Sep-15 19:29N 59°26' E 005°45'0 0.0
2017-Sep-15 18:59N 59°26' E 005°45'0 0.0
2017-Sep-15 18:29N 59°26' E 005°45'0 0.0
2017-Sep-15 17:59N 59°26' E 005°45'0 0.0
2017-Sep-15 17:29N 59°26' E 005°45'0 0.0
2017-Sep-15 16:59N 59°26' E 005°45'0 0.0
2017-Sep-15 16:29N 59°26' E 005°45'0 0.0
2017-Sep-15 15:59N 59°26' E 005°45'0 0.0
2017-Sep-15 15:29N 59°26' E 005°45'0 0.0
2017-Sep-15 14:59N 59°26' E 005°45'0 0.0
2017-Sep-15 14:29N 59°26' E 005°45'0 0.0
2017-Sep-15 13:59N 59°26' E 005°45'0 0.0
2017-Sep-15 13:29N 59°26' E 005°45'0 0.0
2017-Sep-15 12:59N 59°26' E 005°45'0 0.0
2017-Sep-15 12:29N 59°26' E 005°45'0 0.0
2017-Sep-15 11:59N 59°26' E 005°45'0 0.0
2017-Sep-15 11:29N 59°26' E 005°45'0 0.0
2017-Sep-15 10:59N 59°26' E 005°45'0 0.0
2017-Sep-15 10:29N 59°26' E 005°45'0 0.0
2017-Sep-15 09:59N 59°26' E 005°45'0 0.0
2017-Sep-15 09:29N 59°26' E 005°45'0 0.0
2017-Sep-15 08:59N 59°26' E 005°45'0 0.0
2017-Sep-15 08:29N 59°26' E 005°45'0 0.0
2017-Sep-15 07:59N 59°26' E 005°45'0 0.0
2017-Sep-15 07:29N 59°26' E 005°45'0 0.0
2017-Sep-15 06:59N 59°26' E 005°45'0 0.0
2017-Sep-15 06:29N 59°26' E 005°45'0 0.0
2017-Sep-15 05:59N 59°26' E 005°45'0 0.0
2017-Sep-15 05:29N 59°26' E 005°45'0 0.0
2017-Sep-15 04:59N 59°26' E 005°45'0 0.0
2017-Sep-15 04:29N 59°26' E 005°45'0 0.0
2017-Sep-15 03:59N 59°26' E 005°45'0 0.0
2017-Sep-15 03:29N 59°26' E 005°45'0 0.0
2017-Sep-15 02:59N 59°26' E 005°45'0 0.0
2017-Sep-15 02:29N 59°26' E 005°45'0 0.0
2017-Sep-15 01:59N 59°26' E 005°45'0 0.0
2017-Sep-15 01:29N 59°26' E 005°45'0 0.0
2017-Sep-15 00:59N 59°26' E 005°45'0 0.0
2017-Sep-15 00:29N 59°26' E 005°45'0 0.0
2017-Sep-14 23:59N 59°26' E 005°45'0 0.0
2017-Sep-14 23:29N 59°26' E 005°45'0 0.0
2017-Sep-14 22:59N 59°26' E 005°45'0 0.0
2017-Sep-14 22:29N 59°26' E 005°45'0 0.0
2017-Sep-14 21:59N 59°26' E 005°45'0 0.0
2017-Sep-14 21:29N 59°26' E 005°45'0 0.0
2017-Sep-14 20:59N 59°26' E 005°45'0 0.2
2017-Sep-14 20:30N 59°26' E 005°45'3 5.7
2017-Sep-14 20:00N 59°27' E 005°51'5 9.4
2017-Sep-14 19:30N 59°22' E 005°55'  
Track history (hours):
 
Tides and Currents Weather Stations Pressure Air Temp Water Temp Dewpoint Dewpoint Depression Visibility Wind Speed Wind Dir Waves Ship Positions

Wilson Bremen

Last reported at 2017-Sep-24 19:22 UTC. Time now 2017-Sep-24 19:33 UTC.
Position N 66°49' E 013°56'.

Length 88 m; draft 3 m.

Type: Cargo ship. MMSI: 249076000.

Date/timePositionNaut miles runAvg speedWind from/ knotsBaromVisibWave heightAir tempDewpointWater temp
2017-Sep-24 19:22N 66°49' E 013°56'0 0.0
2017-Sep-24 18:58N 66°49' E 013°56'0 0.0
2017-Sep-24 18:10N 66°49' E 013°56'0 0.0
2017-Sep-24 17:52N 66°49' E 013°56'0 0.0
2017-Sep-24 17:28N 66°49' E 013°56'0 0.0
2017-Sep-24 16:58N 66°49' E 013°56'0 0.0
2017-Sep-24 05:16N 66°49' E 013°56'0 0.0
2017-Sep-24 04:58N 66°49' E 013°56'0 0.0
2017-Sep-24 04:16N 66°49' E 013°56'0 0.0
2017-Sep-23 22:34N 66°49' E 013°56'0 0.0
2017-Sep-23 22:16N 66°49' E 013°56'0 0.0
2017-Sep-23 21:40N 66°49' E 013°56'0 0.0
2017-Sep-23 21:28N 66°49' E 013°56'0 0.0
2017-Sep-23 20:58N 66°49' E 013°56'0 0.0
2017-Sep-23 20:28N 66°49' E 013°56'0 0.0
2017-Sep-23 19:58N 66°49' E 013°56'31 0.7
2017-Sep-22 01:58N 66°18' E 014°07'0 0.0
2017-Sep-22 01:25N 66°18' E 014°07'0 0.0
2017-Sep-22 00:58N 66°18' E 014°07'0 0.0
2017-Sep-22 00:28N 66°18' E 014°07'0 0.0
2017-Sep-21 23:58N 66°18' E 014°07'0 0.0
2017-Sep-21 23:28N 66°18' E 014°07'0 0.0
2017-Sep-21 22:58N 66°18' E 014°07'0 0.0
2017-Sep-21 22:28N 66°18' E 014°07'0 0.0
2017-Sep-21 21:58N 66°18' E 014°07'0 0.0
2017-Sep-21 21:28N 66°18' E 014°07'0 0.0
2017-Sep-21 20:58N 66°18' E 014°07'0 0.0
2017-Sep-21 20:28N 66°18' E 014°07'0 0.0
2017-Sep-21 19:58N 66°18' E 014°07'0 0.0
2017-Sep-21 19:28N 66°18' E 014°07'0 0.0
2017-Sep-21 18:58N 66°18' E 014°07'0 0.0
2017-Sep-21 18:28N 66°18' E 014°07'0 0.0
2017-Sep-21 17:58N 66°18' E 014°07'0 0.0
2017-Sep-21 17:28N 66°18' E 014°07'0 0.0
2017-Sep-21 16:58N 66°18' E 014°07'0 0.0
2017-Sep-21 16:28N 66°18' E 014°07'0 0.0
2017-Sep-21 15:58N 66°18' E 014°07'0 0.0
2017-Sep-21 15:28N 66°18' E 014°07'0 0.0
2017-Sep-21 14:58N 66°18' E 014°07'0 0.0
2017-Sep-21 14:28N 66°18' E 014°07'0 0.0
2017-Sep-21 13:58N 66°18' E 014°07'1 1.5
2017-Sep-21 13:27N 66°19' E 014°07'0 0.1
2017-Sep-21 12:57N 66°19' E 014°07'0 0.0
2017-Sep-21 12:27N 66°19' E 014°07'0 0.0
2017-Sep-21 11:57N 66°19' E 014°07'0 0.0
2017-Sep-21 11:27N 66°19' E 014°07'0 0.0
2017-Sep-21 10:51N 66°19' E 014°07'0 0.0
2017-Sep-21 10:27N 66°19' E 014°07'0 0.0
2017-Sep-21 09:57N 66°19' E 014°07'0 0.0
2017-Sep-21 09:27N 66°19' E 014°07'0 0.0
2017-Sep-21 08:57N 66°19' E 014°07'0 0.0
2017-Sep-21 08:27N 66°19' E 014°07'0 0.0
2017-Sep-21 07:57N 66°19' E 014°07'0 0.1
2017-Sep-21 07:27N 66°19' E 014°07'0 0.0
2017-Sep-21 06:57N 66°19' E 014°07'0 0.0
2017-Sep-21 06:27N 66°19' E 014°07'0 0.0
2017-Sep-21 05:57N 66°19' E 014°07'0 0.0
2017-Sep-21 05:27N 66°19' E 014°07'0 0.0
2017-Sep-21 04:57N 66°19' E 014°07'0 0.0
2017-Sep-21 04:27N 66°19' E 014°07'0 0.0
2017-Sep-21 03:57N 66°19' E 014°07'0 0.0
2017-Sep-21 03:27N 66°19' E 014°07'0 0.0
2017-Sep-21 02:57N 66°19' E 014°07'0 0.0
2017-Sep-21 02:27N 66°19' E 014°07'0 0.0
2017-Sep-21 01:57N 66°19' E 014°07'0 0.0
2017-Sep-21 01:27N 66°19' E 014°07'0 0.0
2017-Sep-21 00:57N 66°19' E 014°07'0 0.8
2017-Sep-21 00:30N 66°19' E 014°06'4 8.6
2017-Sep-21 00:00N 66°17' E 013°57'4 8.9
2017-Sep-20 23:29N 66°15' E 013°47'4 8.5
2017-Sep-20 23:00N 66°14' E 013°37'4 8.4
2017-Sep-20 22:30N 66°14' E 013°26'4 7.3
2017-Sep-20 22:00N 66°14' E 013°17'4 8.0
2017-Sep-20 21:30N 66°11' E 013°09'4 8.6
2017-Sep-20 21:00N 66°10' E 012°60'4 8.2
2017-Sep-20 20:30N 66°10' E 012°50'4 8.4
2017-Sep-20 20:00N 66°12' E 012°41'4 7.3
2017-Sep-20 19:30N 66°14' E 012°33'4 8.6
2017-Sep-20 19:00N 66°16' E 012°23'4 8.5
2017-Sep-20 18:30N 66°17' E 012°13'5 9.3
2017-Sep-20 18:00N 66°16' E 012°01'5 9.3
2017-Sep-20 17:30N 66°15' E 011°50'163 9.6
2017-Sep-20 00:35N 63°59' E 008°18'1 9.0
2017-Sep-20 00:30N 63°58' E 008°17'5 9.1
2017-Sep-20 00:00N 63°55' E 008°10'5 9.3
2017-Sep-19 23:29N 63°52' E 008°02'4 9.2
2017-Sep-19 23:00N 63°48' E 007°56'5 9.0
2017-Sep-19 22:30N 63°45' E 007°48'5 9.1
2017-Sep-19 22:00N 63°42' E 007°41'5 9.4
2017-Sep-19 21:30N 63°39' E 007°33'5 9.4
2017-Sep-19 21:00N 63°35' E 007°26'5 9.6
2017-Sep-19 20:30N 63°32' E 007°19'5 9.6
2017-Sep-19 20:00N 63°28' E 007°12'5 9.5
2017-Sep-19 19:30N 63°25' E 007°04'5 9.8
2017-Sep-19 19:00N 63°21' E 006°57'5 9.7
2017-Sep-19 18:30N 63°17' E 006°50'5 9.5
2017-Sep-19 18:00N 63°14' E 006°44'5 9.6
2017-Sep-19 17:30N 63°10' E 006°37'5 9.7
2017-Sep-19 17:00N 63°06' E 006°30'5 9.9
2017-Sep-19 16:30N 63°02' E 006°23'510.2
2017-Sep-19 16:00N 62°58' E 006°17'510.3
2017-Sep-19 15:30N 62°54' E 006°10'510.4
2017-Sep-19 15:00N 62°50' E 006°02'510.6
2017-Sep-19 14:30N 62°46' E 005°55'510.8
2017-Sep-19 14:00N 62°42' E 005°48'510.3
2017-Sep-19 13:30N 62°38' E 005°41'5 9.7
2017-Sep-19 13:00N 62°34' E 005°35'5 9.5
2017-Sep-19 12:30N 62°30' E 005°28'5 9.4
2017-Sep-19 12:00N 62°27' E 005°21'5 9.2
2017-Sep-19 11:29N 62°23' E 005°15'5 9.5
2017-Sep-19 11:00N 62°19' E 005°09'5 9.9
2017-Sep-19 10:30N 62°15' E 005°03'5 9.8
2017-Sep-19 10:00N 62°11' E 004°57'5 9.5
2017-Sep-19 09:30N 62°07' E 004°52'5 9.4
2017-Sep-19 09:00N 62°03' E 004°46'5 9.4
2017-Sep-19 08:30N 61°59' E 004°42'5 9.5
2017-Sep-19 08:00N 61°54' E 004°39'5 9.9
2017-Sep-19 07:30N 61°50' E 004°35'5 9.7
2017-Sep-19 07:00N 61°45' E 004°31'5 9.6
2017-Sep-19 06:30N 61°41' E 004°27'5 9.7
2017-Sep-19 06:00N 61°36' E 004°26'5 9.9
2017-Sep-19 05:30N 61°31' E 004°26'510.0
2017-Sep-19 05:00N 61°26' E 004°26'510.1
2017-Sep-19 04:30N 61°21' E 004°26'5 9.8
2017-Sep-19 03:59N 61°16' E 004°25'5 9.7
2017-Sep-19 03:30N 61°11' E 004°24'5 9.5
2017-Sep-19 03:00N 61°06' E 004°24'510.2
2017-Sep-19 02:29N 61°01' E 004°24'510.7
2017-Sep-19 02:00N 60°56' E 004°26'510.5
2017-Sep-19 01:30N 60°51' E 004°28'510.1
2017-Sep-19 01:00N 60°46' E 004°29'5 9.6
2017-Sep-19 00:30N 60°41' E 004°31'5 9.2
2017-Sep-19 00:00N 60°37' E 004°32'5 9.1
2017-Sep-18 23:30N 60°32' E 004°34'5 9.5
2017-Sep-18 23:00N 60°28' E 004°35'5 9.7
2017-Sep-18 22:30N 60°23' E 004°37'5 9.8
2017-Sep-18 21:59N 60°18' E 004°39'5 9.7
2017-Sep-18 21:30N 60°13' E 004°40'5 9.8
2017-Sep-18 21:00N 60°08' E 004°42'5 9.7
2017-Sep-18 20:29N 60°03' E 004°43'5 9.6
2017-Sep-18 20:00N 59°59' E 004°45'5 9.5
2017-Sep-18 19:30N 59°54' E 004°46'5 9.5
2017-Sep-18 18:59N 59°49' E 004°48'5 9.6
2017-Sep-18 18:30N 59°45' E 004°49'5 9.3
2017-Sep-18 18:00N 59°40' E 004°51'5 9.2
2017-Sep-18 17:29N 59°35' E 004°53'5 9.4
2017-Sep-18 17:00N 59°31' E 004°54'5 9.7
2017-Sep-18 16:30N 59°26' E 004°56'510.2
2017-Sep-18 16:00N 59°21' E 004°57'510.2
2017-Sep-18 15:30N 59°16' E 004°59'510.0
2017-Sep-18 15:00N 59°12' E 005°04'510.0
2017-Sep-18 14:30N 59°08' E 005°10'5 9.6
2017-Sep-18 14:00N 59°07' E 005°19'5 9.6
2017-Sep-18 13:30N 59°09' E 005°28'5 9.5
2017-Sep-18 13:00N 59°12' E 005°35'5 9.6
2017-Sep-18 12:30N 59°15' E 005°42'5 9.6
2017-Sep-18 12:00N 59°18' E 005°49'5 8.9
2017-Sep-18 11:29N 59°22' E 005°54'4 9.3
2017-Sep-18 11:00N 59°26' E 005°51'3 6.1
2017-Sep-18 10:30N 59°26' E 005°45'0 0.2
2017-Sep-18 09:59N 59°26' E 005°45'0 0.0
2017-Sep-18 09:29N 59°26' E 005°45'0 0.0
2017-Sep-18 08:59N 59°26' E 005°45'0 0.0
2017-Sep-18 08:29N 59°26' E 005°45'0 0.0
2017-Sep-18 07:59N 59°26' E 005°45'0 0.0
2017-Sep-18 07:29N 59°26' E 005°45'0 0.0
2017-Sep-18 06:59N 59°26' E 005°45'0 0.0
2017-Sep-18 06:29N 59°26' E 005°45'0 0.0
2017-Sep-18 05:59N 59°26' E 005°45'0 0.0
2017-Sep-18 05:29N 59°26' E 005°45'0 0.0
2017-Sep-18 04:59N 59°26' E 005°45'0 0.0
2017-Sep-18 04:29N 59°26' E 005°45'0 0.0
2017-Sep-18 03:59N 59°26' E 005°45'0 0.0
2017-Sep-18 03:29N 59°26' E 005°45'0 0.0
2017-Sep-18 02:59N 59°26' E 005°45'0 0.0
2017-Sep-18 02:29N 59°26' E 005°45'0 0.0
2017-Sep-18 01:59N 59°26' E 005°45'0 0.0
2017-Sep-18 01:29N 59°26' E 005°45'0 0.0
2017-Sep-18 00:59N 59°26' E 005°45'0 0.0
2017-Sep-18 00:29N 59°26' E 005°45'0 0.0
2017-Sep-17 23:59N 59°26' E 005°45'0 0.0
2017-Sep-17 23:29N 59°26' E 005°45'0 0.0
2017-Sep-17 22:59N 59°26' E 005°45'0 0.0
2017-Sep-17 22:29N 59°26' E 005°45'0 0.0
2017-Sep-17 21:59N 59°26' E 005°45'0 0.0
2017-Sep-17 21:29N 59°26' E 005°45'0 0.0
2017-Sep-17 20:59N 59°26' E 005°45'0 0.0
2017-Sep-17 20:29N 59°26' E 005°45'0 0.0
2017-Sep-17 19:59N 59°26' E 005°45'0 0.0
2017-Sep-17 19:29N 59°26' E 005°45'0 0.0
2017-Sep-17 18:59N 59°26' E 005°45'0 0.0
2017-Sep-17 18:29N 59°26' E 005°45'0 0.0
2017-Sep-17 17:59N 59°26' E 005°45'0 0.0
2017-Sep-17 17:29N 59°26' E 005°45'0 0.0
2017-Sep-17 16:59N 59°26' E 005°45'0 0.0
2017-Sep-17 16:29N 59°26' E 005°45'0 0.0
2017-Sep-17 15:59N 59°26' E 005°45'0 0.0
2017-Sep-17 15:29N 59°26' E 005°45'0 0.0
2017-Sep-17 14:59N 59°26' E 005°45'0 0.0
2017-Sep-17 14:29N 59°26' E 005°45'0 0.0
2017-Sep-17 13:59N 59°26' E 005°45'0 0.0
2017-Sep-17 13:29N 59°26' E 005°45'0 0.0
2017-Sep-17 12:59N 59°26' E 005°45'0 0.0
2017-Sep-17 12:29N 59°26' E 005°45'0 0.0
2017-Sep-17 11:59N 59°26' E 005°45'0 0.0
2017-Sep-17 11:29N 59°26' E 005°45'0 0.0
2017-Sep-17 10:59N 59°26' E 005°45'0 0.0
2017-Sep-17 10:29N 59°26' E 005°45'0 0.0
2017-Sep-17 09:59N 59°26' E 005°45'0 0.0
2017-Sep-17 09:29N 59°26' E 005°45'0 0.0
2017-Sep-17 08:59N 59°26' E 005°45'0 0.0
2017-Sep-17 08:29N 59°26' E 005°45'0 0.0
2017-Sep-17 07:59N 59°26' E 005°45'0 0.0
2017-Sep-17 07:29N 59°26' E 005°45'0 0.0
2017-Sep-17 06:59N 59°26' E 005°45'0 0.0
2017-Sep-17 06:29N 59°26' E 005°45'0 0.0
2017-Sep-17 05:59N 59°26' E 005°45'0 0.0
2017-Sep-17 05:29N 59°26' E 005°45'0 0.0
2017-Sep-17 04:59N 59°26' E 005°45'0 0.0
2017-Sep-17 04:29N 59°26' E 005°45'0 0.0
2017-Sep-17 03:59N 59°26' E 005°45'0 0.0
2017-Sep-17 03:29N 59°26' E 005°45'0 0.0
2017-Sep-17 02:59N 59°26' E 005°45'0 0.0
2017-Sep-17 02:29N 59°26' E 005°45'0 0.0
2017-Sep-17 01:59N 59°26' E 005°45'0 0.0
2017-Sep-17 01:29N 59°26' E 005°45'0 0.0
2017-Sep-17 00:59N 59°26' E 005°45'0 0.0
2017-Sep-17 00:29N 59°26' E 005°45'0 0.0
2017-Sep-16 23:59N 59°26' E 005°45'0 0.0
2017-Sep-16 23:29N 59°26' E 005°45'0 0.0
2017-Sep-16 22:59N 59°26' E 005°45'0 0.0
2017-Sep-16 22:29N 59°26' E 005°45'0 0.0
2017-Sep-16 21:59N 59°26' E 005°45'0 0.0
2017-Sep-16 21:29N 59°26' E 005°45'0 0.0
2017-Sep-16 20:59N 59°26' E 005°45'0 0.0
2017-Sep-16 20:29N 59°26' E 005°45'0 0.0
2017-Sep-16 19:59N 59°26' E 005°45'0 0.0
2017-Sep-16 19:29N 59°26' E 005°45'0 0.0
2017-Sep-16 18:59N 59°26' E 005°45'0 0.0
2017-Sep-16 18:29N 59°26' E 005°45'0 0.0
2017-Sep-16 17:59N 59°26' E 005°45'0 0.0
2017-Sep-16 17:29N 59°26' E 005°45'0 0.0
2017-Sep-16 16:59N 59°26' E 005°45'0 0.0
2017-Sep-16 16:29N 59°26' E 005°45'0 0.0
2017-Sep-16 15:59N 59°26' E 005°45'0 0.0
2017-Sep-16 15:29N 59°26' E 005°45'0 0.0
2017-Sep-16 14:59N 59°26' E 005°45'0 0.0
2017-Sep-16 14:29N 59°26' E 005°45'0 0.0
2017-Sep-16 13:59N 59°26' E 005°45'0 0.0
2017-Sep-16 13:29N 59°26' E 005°45'0 0.0
2017-Sep-16 12:59N 59°26' E 005°45'0 0.0
2017-Sep-16 12:29N 59°26' E 005°45'0 0.0
2017-Sep-16 11:59N 59°26' E 005°45'0 0.0
2017-Sep-16 11:29N 59°26' E 005°45'0 0.0
2017-Sep-16 10:59N 59°26' E 005°45'0 0.0
2017-Sep-16 10:29N 59°26' E 005°45'0 0.0
2017-Sep-16 09:59N 59°26' E 005°45'0 0.0
2017-Sep-16 09:29N 59°26' E 005°45'0 0.0
2017-Sep-16 08:59N 59°26' E 005°45'0 0.0
2017-Sep-16 08:29N 59°26' E 005°45'0 0.0
2017-Sep-16 07:59N 59°26' E 005°45'0 0.0
2017-Sep-16 07:29N 59°26' E 005°45'0 0.0
2017-Sep-16 06:59N 59°26' E 005°45'0 0.0
2017-Sep-16 06:29N 59°26' E 005°45'0 0.0
2017-Sep-16 05:59N 59°26' E 005°45'0 0.0
2017-Sep-16 05:29N 59°26' E 005°45'0 0.0
2017-Sep-16 04:59N 59°26' E 005°45'0 0.0
2017-Sep-16 04:29N 59°26' E 005°45'0 0.0
2017-Sep-16 03:53N 59°26' E 005°45'0 0.0
2017-Sep-16 03:29N 59°26' E 005°45'0 0.0
2017-Sep-16 02:59N 59°26' E 005°45'0 0.0
2017-Sep-16 02:29N 59°26' E 005°45'0 0.0
2017-Sep-16 01:59N 59°26' E 005°45'0 0.0
2017-Sep-16 01:29N 59°26' E 005°45'0 0.0
2017-Sep-16 00:59N 59°26' E 005°45'0 0.0
2017-Sep-16 00:29N 59°26' E 005°45'0 0.0
2017-Sep-15 23:59N 59°26' E 005°45'0 0.0
2017-Sep-15 23:29N 59°26' E 005°45'0 0.0
2017-Sep-15 22:59N 59°26' E 005°45'0 0.0
2017-Sep-15 22:29N 59°26' E 005°45'0 0.0
2017-Sep-15 21:59N 59°26' E 005°45'0 0.0
2017-Sep-15 21:29N 59°26' E 005°45'0 0.0
2017-Sep-15 20:59N 59°26' E 005°45'0 0.0
2017-Sep-15 20:29N 59°26' E 005°45'0 0.0
2017-Sep-15 19:59N 59°26' E 005°45'0 0.0
2017-Sep-15 19:29N 59°26' E 005°45'0 0.0
2017-Sep-15 18:59N 59°26' E 005°45'0 0.0
2017-Sep-15 18:29N 59°26' E 005°45'0 0.0
2017-Sep-15 17:59N 59°26' E 005°45'0 0.0
2017-Sep-15 17:29N 59°26' E 005°45'0 0.0
2017-Sep-15 16:59N 59°26' E 005°45'0 0.0
2017-Sep-15 16:29N 59°26' E 005°45'0 0.0
2017-Sep-15 15:59N 59°26' E 005°45'0 0.0
2017-Sep-15 15:29N 59°26' E 005°45'0 0.0
2017-Sep-15 14:59N 59°26' E 005°45'0 0.0
2017-Sep-15 14:29N 59°26' E 005°45'0 0.0
2017-Sep-15 13:59N 59°26' E 005°45'0 0.0
2017-Sep-15 13:29N 59°26' E 005°45'0 0.0
2017-Sep-15 12:59N 59°26' E 005°45'0 0.0
2017-Sep-15 12:29N 59°26' E 005°45'0 0.0
2017-Sep-15 11:59N 59°26' E 005°45'0 0.0
2017-Sep-15 11:29N 59°26' E 005°45'0 0.0
2017-Sep-15 10:59N 59°26' E 005°45'0 0.0
2017-Sep-15 10:29N 59°26' E 005°45'0 0.0
2017-Sep-15 09:59N 59°26' E 005°45'0 0.0
2017-Sep-15 09:29N 59°26' E 005°45'0 0.0
2017-Sep-15 08:59N 59°26' E 005°45'0 0.0
2017-Sep-15 08:29N 59°26' E 005°45'0 0.0
2017-Sep-15 07:59N 59°26' E 005°45'0 0.0
2017-Sep-15 07:29N 59°26' E 005°45'0 0.0
2017-Sep-15 06:59N 59°26' E 005°45'0 0.0
2017-Sep-15 06:29N 59°26' E 005°45'0 0.0
2017-Sep-15 05:59N 59°26' E 005°45'0 0.0
2017-Sep-15 05:29N 59°26' E 005°45'0 0.0
2017-Sep-15 04:59N 59°26' E 005°45'0 0.0
2017-Sep-15 04:29N 59°26' E 005°45'0 0.0
2017-Sep-15 03:59N 59°26' E 005°45'0 0.0
2017-Sep-15 03:29N 59°26' E 005°45'0 0.0
2017-Sep-15 02:59N 59°26' E 005°45'0 0.0
2017-Sep-15 02:29N 59°26' E 005°45'0 0.0
2017-Sep-15 01:59N 59°26' E 005°45'0 0.0
2017-Sep-15 01:29N 59°26' E 005°45'0 0.0
2017-Sep-15 00:59N 59°26' E 005°45'0 0.0
2017-Sep-15 00:29N 59°26' E 005°45'0 0.0
2017-Sep-14 23:59N 59°26' E 005°45'0 0.0
2017-Sep-14 23:29N 59°26' E 005°45'0 0.0
2017-Sep-14 22:59N 59°26' E 005°45'0 0.0
2017-Sep-14 22:29N 59°26' E 005°45'0 0.0
2017-Sep-14 21:59N 59°26' E 005°45'0 0.0
2017-Sep-14 21:29N 59°26' E 005°45'0 0.0
2017-Sep-14 20:59N 59°26' E 005°45'0 0.2
2017-Sep-14 20:30N 59°26' E 005°45'3 5.7
2017-Sep-14 20:00N 59°27' E 005°51'5 9.4
2017-Sep-14 19:30N 59°22' E 005°55'  

Dump ship's entire track history